Airfield :
LOGIN :

Register | Disclaimer

   EN    FR    IT 

 










Legend :    VFR   Marginal VFR   IFR   Intensive IFR   Very Intensive IFR
Visi :
Ceiling :
>= 8 km
>= 3000ft
5 to 8 km
1000 to 3000 ft
1500m to 5 km
500 to 1000 ft
800 to 1500m
200 to 500 ft
< 800m
< 200 ft
Symbols :   Thunderstorms  Fog  Heavy snow  Heavy precipitations  Wind > 20 kt
SIGMETs :     Misc.  Thunderstorms  Icing  Turbulence  Mountain Waves  Volcanic Ashes







- Airport Elevation : 863 ft
- IATA code : ZAZ


LEZG - Zaragoza Aragon

CURRENT METAR :
  • 291300Z 30013KT 260V330 9999 VCTS FEW040 FEW060CB BKN080 22/14 Q1015

EXPIRED METARs :
  • 291230Z 31014KT 280V340 9999 VCTS FEW040 FEW060CB SCT080 23/12 Q1015
  • 291200Z 31014KT 9999 VCTS FEW040 FEW060CB SCT080 24/13 Q1015
  • 291130Z 31013KT 290V350 9999 FEW040 SCT080 25/13 Q1015
  • 291100Z VRB02KT 9999 FEW040 SCT080 26/09 Q1015
  • 291030Z 35003KT 9999 FEW040 SCT080 25/10 Q1015

TAF AMD TAF LEZG
Valid from the 29 at 12:00 until the 30 at 12:00 UTC


291208Z 2912/3012 11012KT 9999 FEW050 TX28/2914Z TN16/3006Z
TEMPO 2912/2915 VRB04KT
BECMG 2915/2918 30010KT
PROB40
TEMPO 2912/2920 TSRA BKN030 SCT040CB
No reported NOTAMs for that airfield.
3 SIGMETs reported for the Madrid FIR (LECM) :
 
Embedded thunderstorms
LECM SIGMET 8 VALID 291300/291500 LEVA
LECM MADRID FIR/UIR EMBD TS OBS AT 1300Z N OF LINE N4110 W00210 - N41 W001 TOP FL360 STNR NC=
Embedded thunderstorms
LECM SIGMET 7 VALID 291138/291400 LEVA
LECM MADRID FIR/UIR EMBD TS OBS AT 1138Z N OF LINE N4130 W00410 - N4130 W00220 TOP FL360 STNR NC=
Embedded thunderstorms
LECM SIGMET 6 VALID 291015/291300 LEVA
LECM MADRID FIR/UIR EMBD TS OBS AT 1015Z WI N4250 W00040 - N4120 W00130 - N4130 W00240 - N4340 W002 TOP FL360 MOV N NC=



MET'MAP, your aeronautical weather chart ! - Copyright ORBIFLY December 2007 - Disclaimer

ORBIFLY MET'MAP TEAM :

Programming & Development : Alexandra Zaïnal
Concept & Development : Baudouin d'Aumeries
Co-Development & Prog : Marc-Olivier Méhu
Technical & hardware support : Manuel Goepfert

Contact : metmap@orbifly.com




SOURCES & CREDITS :

   NOAA